Time;durP1;ratioP1;P1;durP2;ratioP2;P2;SDS_P1;SDS_P2;PMS_P1;PMS_P2;Temp;Humidity;BMP_temperature;BMP_pressure;BME280_temperature;BME280_humidity;BME280_pressure;Samples;Min_cycle;Max_cycle;Signal;HPM_P1;HPM_P2
2023/09/25 00:00:13;;;;;;;4.83;4.53;;;;;;;22.61;94.32;99576.38;5093416;28;20188;-72
2023/09/25 00:02:39;;;;;;;4.83;4.47;;;;;;;22.65;94.49;99562.03;5093051;28;20709;-75
2023/09/25 00:05:07;;;;;;;4.53;4.33;;;;;;;22.59;94.51;99565.84;5093391;28;20203;-75
2023/09/25 00:07:34;;;;;;;8.50;4.93;;;;;;;22.37;95.56;99564.47;5089050;28;20219;-75
2023/09/25 00:10:01;;;;;;;5.30;4.90;;;;;;;22.32;96.33;99559.84;5073066;28;20733;-75
2023/09/25 00:12:28;;;;;;;5.30;4.80;;;;;;;22.27;96.74;99565.28;5072919;28;20200;-74
2023/09/25 00:14:56;;;;;;;5.30;4.67;;;;;;;22.39;96.27;99568.53;5072482;28;20729;-74
2023/09/25 00:17:23;;;;;;;4.43;4.13;;;;;;;22.42;95.79;99567.97;5072553;28;20257;-74
2023/09/25 00:19:49;;;;;;;5.60;5.10;;;;;;;22.38;96.35;99572.31;5072795;28;20196;-74
2023/09/25 00:22:16;;;;;;;5.30;4.83;;;;;;;22.45;95.69;99566.63;5072717;28;20219;-73
2023/09/25 00:24:43;;;;;;;5.77;5.33;;;;;;;22.35;96.12;99566.63;5072414;28;20193;-72
2023/09/25 00:27:10;;;;;;;5.10;4.57;;;;;;;22.35;95.91;99562.03;5071812;28;20192;-72
2023/09/25 00:29:37;;;;;;;5.33;4.93;;;;;;;22.41;95.80;99566.34;5072641;28;20294;-73
2023/09/25 00:32:05;;;;;;;4.90;4.60;;;;;;;22.44;95.46;99559.59;5072577;28;20202;-74
2023/09/25 00:34:32;;;;;;;5.60;5.30;;;;;;;22.29;96.33;99552.28;5072523;28;20192;-74
2023/09/25 00:36:59;;;;;;;5.43;5.03;;;;;;;22.34;96.06;99554.19;5072128;28;20278;-74
2023/09/25 00:39:26;;;;;;;5.70;5.40;;;;;;;22.43;95.84;99550.66;5072426;28;20188;-75
2023/09/25 00:41:52;;;;;;;5.67;5.17;;;;;;;22.34;95.95;99552.28;5072103;28;20254;-75
2023/09/25 00:44:19;;;;;;;4.93;4.60;;;;;;;22.37;96.14;99557.16;5072125;28;20192;-75
2023/09/25 00:46:46;;;;;;;5.33;4.93;;;;;;;22.40;95.56;99556.63;5072288;28;20245;-75
2023/09/25 00:49:14;;;;;;;6.60;5.40;;;;;;;22.32;96.08;99557.16;5072353;28;20192;-75
2023/09/25 00:51:42;;;;;;;5.13;4.83;;;;;;;22.45;95.61;99551.19;5071879;28;20656;-75
2023/09/25 00:54:09;;;;;;;6.20;5.70;;;;;;;22.32;96.08;99554.44;5072209;28;20268;-76
2023/09/25 00:56:36;;;;;;;5.33;4.87;;;;;;;22.13;97.41;99558.75;5071784;28;20250;-76
2023/09/25 00:59:02;;;;;;;6.03;5.53;;;;;;;22.10;97.49;99564.72;5072389;28;20192;-75
2023/09/25 01:01:29;;;;;;;5.73;5.43;;;;;;;22.17;97.54;99550.94;5072047;28;20231;-75
2023/09/25 01:03:56;;;;;;;6.03;5.50;;;;;;;22.16;97.37;99558.22;5071741;28;20253;-74
2023/09/25 01:06:24;;;;;;;5.67;5.20;;;;;;;22.13;97.39;99566.06;5072072;28;20249;-74
2023/09/25 01:08:51;;;;;;;6.20;5.83;;;;;;;22.07;97.98;99559.84;5086370;28;20196;-74
2023/09/25 01:11:17;;;;;;;6.27;5.87;;;;;;;22.13;97.65;99566.88;5091871;28;20681;-75
2023/09/25 01:13:44;;;;;;;6.00;5.67;;;;;;;22.25;97.34;99561.22;5092195;28;20198;-75
2023/09/25 01:16:11;;;;;;;5.60;5.30;;;;;;;22.34;96.35;99565.81;5092397;28;20625;-75
2023/09/25 01:18:38;;;;;;;5.73;5.37;;;;;;;22.35;95.84;99567.44;5091655;28;20195;-74
2023/09/25 01:21:05;;;;;;;6.43;6.03;;;;;;;22.38;95.69;99580.41;5091775;28;20587;-75
2023/09/25 01:23:33;;;;;;;6.30;5.70;;;;;;;22.41;95.57;99574.47;5091727;28;20662;-75
2023/09/25 01:25:59;;;;;;;5.40;4.90;;;;;;;22.40;95.34;99572.84;5092077;28;20187;-76
2023/09/25 01:28:26;;;;;;;6.03;5.63;;;;;;;22.48;95.25;99577.75;5091635;28;20571;-75
2023/09/25 01:30:54;;;;;;;5.50;5.20;;;;;;;22.57;94.67;99586.97;5091973;28;20195;-75
2023/09/25 01:33:20;;;;;;;5.83;5.23;;;;;;;22.60;94.07;99581.00;5091877;28;20188;-76
2023/09/25 01:35:47;;;;;;;4.70;4.47;;;;;;;22.53;94.46;99580.47;5091986;28;20258;-76
2023/09/25 01:38:14;;;;;;;5.43;5.03;;;;;;;22.50;94.39;99578.28;5091960;28;20253;-75
2023/09/25 01:40:42;;;;;;;5.30;5.00;;;;;;;22.48;94.38;99576.94;5095351;28;20187;-75
2023/09/25 01:43:08;;;;;;;6.03;5.53;;;;;;;22.45;94.62;99582.84;5095807;28;20631;-74
2023/09/25 01:45:35;;;;;;;5.80;5.40;;;;;;;22.47;94.68;99578.84;5095778;28;20755;-75
2023/09/25 01:48:02;;;;;;;5.20;4.90;;;;;;;22.50;94.33;99585.63;5096091;28;20245;-75
2023/09/25 01:50:29;;;;;;;5.00;4.60;;;;;;;22.30;95.37;99582.88;5095864;28;20191;-76
2023/09/25 01:52:58;;;;;;;5.00;4.57;;;;;;;22.21;95.95;99579.88;5095616;28;20191;-75
2023/09/25 01:55:28;;;;;;;4.90;4.60;;;;;;;22.25;95.87;99583.66;5095613;28;20191;-74
2023/09/25 01:57:56;;;;;;;5.23;4.73;;;;;;;22.35;95.58;99580.97;5095531;28;20183;-75
2023/09/25 02:00:23;;;;;;;6.90;4.93;;;;;;;22.42;95.08;99586.13;5095777;28;20277;-75
2023/09/25 02:02:50;;;;;;;5.20;4.40;;;;;;;22.42;94.53;99584.22;5095866;28;20280;-74
2023/09/25 02:05:16;;;;;;;4.43;4.23;;;;;;;22.45;94.47;99575.56;5095759;28;20187;-72
2023/09/25 02:07:43;;;;;;;5.43;5.03;;;;;;;22.53;94.13;99580.47;5090197;28;20658;-73
2023/09/25 02:10:10;;;;;;;5.07;4.67;;;;;;;22.50;93.79;99589.13;5074985;28;20196;-73
2023/09/25 02:12:37;;;;;;;4.97;4.50;;;;;;;22.47;94.21;99586.97;5074884;28;20617;-73
2023/09/25 02:15:08;;;;;;;5.53;4.80;;;;;;;22.52;93.95;99589.69;5075076;28;20672;-74
2023/09/25 02:17:35;;;;;;;4.93;4.53;;;;;;;22.27;94.86;99594.22;5075155;28;20275;-75
2023/09/25 02:20:13;;;;;;;4.90;4.67;;;;;;;22.37;94.73;99595.03;5075406;28;20192;-75
2023/09/25 02:22:40;;;;;;;5.23;4.70;;;;;;;22.44;94.51;99592.06;5074685;28;20204;-76
2023/09/25 02:25:08;;;;;;;7.03;4.63;;;;;;;22.46;94.16;99601.56;5075260;28;20192;-76
2023/09/25 02:27:35;;;;;;;5.50;5.10;;;;;;;22.41;94.03;99598.84;5074793;28;20197;-75
2023/09/25 02:30:02;;;;;;;5.87;5.30;;;;;;;22.42;94.45;99596.94;5074654;28;20246;-77
2023/09/25 02:32:30;;;;;;;5.53;5.13;;;;;;;22.40;94.44;99596.41;5074569;28;20254;-76
2023/09/25 02:34:57;;;;;;;5.57;4.87;;;;;;;22.35;94.55;99599.09;5074811;28;20253;-77
2023/09/25 02:37:23;;;;;;;5.37;4.90;;;;;;;22.33;94.65;99601.28;5074585;28;20590;-78
2023/09/25 02:39:50;;;;;;;6.13;5.73;;;;;;;22.42;94.74;99607.78;5074614;28;20324;-78
2023/09/25 02:42:17;;;;;;;4.93;4.70;;;;;;;22.47;94.14;99608.63;5074779;28;20579;-78
2023/09/25 02:44:43;;;;;;;6.17;4.53;;;;;;;22.56;93.79;99608.88;5074380;28;20197;-78
2023/09/25 02:47:10;;;;;;;8.40;7.63;;;;;;;22.59;93.36;99609.19;5074345;28;20242;-77
2023/09/25 02:49:38;;;;;;;5.10;4.73;;;;;;;22.60;92.88;99608.09;5073705;28;20193;-75
2023/09/25 02:52:05;;;;;;;9.07;8.37;;;;;;;22.48;93.44;99615.66;5074239;28;20242;-75
2023/09/25 02:54:32;;;;;;;7.50;6.90;;;;;;;22.54;93.71;99616.50;5074150;28;20657;-76
2023/09/25 02:56:57;;;;;;;6.30;5.90;;;;;;;22.60;93.44;99616.22;5074513;28;20239;-76
2023/09/25 02:59:24;;;;;;;5.37;5.00;;;;;;;22.64;93.01;99613.78;5074068;28;20232;-76
2023/09/25 03:01:51;;;;;;;5.10;4.80;;;;;;;22.66;92.48;99622.44;5073856;28;20216;-75
2023/09/25 03:04:17;;;;;;;8.90;8.10;;;;;;;22.67;92.21;99624.06;5074019;28;20253;-74
2023/09/25 03:06:45;;;;;;;5.40;4.90;;;;;;;22.74;92.54;99624.63;5074327;28;20224;-75
2023/09/25 03:09:12;;;;;;;5.90;5.23;;;;;;;22.44;93.15;99625.38;5091520;28;20617;-76
2023/09/25 03:11:38;;;;;;;6.00;5.50;;;;;;;22.44;93.68;99625.38;5094144;28;20625;-76
2023/09/25 03:14:05;;;;;;;5.57;4.77;;;;;;;22.53;93.37;99615.66;5094405;28;20229;-76
2023/09/25 03:16:32;;;;;;;6.47;5.87;;;;;;;22.57;92.94;99630.28;5094359;28;20242;-76
2023/09/25 03:18:58;;;;;;;10.70;9.80;;;;;;;22.57;92.76;99624.88;5094177;28;20199;-68
2023/09/25 03:21:25;;;;;;;8.27;7.63;;;;;;;22.81;95.46;99639.50;5094238;28;20282;-70
2023/09/25 03:23:53;;;;;;;6.40;5.90;;;;;;;23.05;92.79;99629.72;5093689;28;20193;-65
2023/09/25 03:26:21;;;;;;;9.10;7.60;;;;;;;23.09;90.80;99633.50;5093861;28;20660;-63
2023/09/25 03:28:50;;;;;;;5.40;4.70;;;;;;;22.94;90.79;99638.94;5093955;28;20192;-76
2023/09/25 03:31:16;;;;;;;5.23;4.80;;;;;;;22.76;91.29;99644.09;5094040;28;20257;-76
2023/09/25 03:33:46;;;;;;;5.43;4.93;;;;;;;22.83;90.93;99637.31;5093587;28;20196;-76
2023/09/25 03:36:13;;;;;;;5.43;5.03;;;;;;;22.88;90.84;99640.03;5094105;28;20242;-76
2023/09/25 03:38:40;;;;;;;6.33;5.50;;;;;;;22.64;91.59;99636.25;5093807;28;20246;-77
2023/09/25 03:41:08;;;;;;;5.13;4.73;;;;;;;22.64;91.59;99638.97;5093698;28;20649;-77
2023/09/25 03:43:34;;;;;;;6.13;5.63;;;;;;;22.66;91.48;99634.06;5093411;28;20188;-76
2023/09/25 03:46:02;;;;;;;5.13;4.73;;;;;;;22.67;91.52;99635.69;5093468;28;20261;-76
2023/09/25 03:48:29;;;;;;;5.10;4.80;;;;;;;22.65;91.69;99637.88;5093274;28;20246;-70
2023/09/25 03:50:55;;;;;;;5.27;4.93;;;;;;;22.61;91.51;99642.22;5093430;28;20287;-71
2023/09/25 03:53:22;;;;;;;6.03;5.43;;;;;;;22.63;91.86;99640.06;5093645;28;20265;-72
2023/09/25 03:55:49;;;;;;;5.83;5.20;;;;;;;22.82;94.08;99648.44;5093274;28;20238;-74
2023/09/25 03:58:17;;;;;;;5.20;4.70;;;;;;;23.12;93.25;99649.19;5093709;28;20200;-73
2023/09/25 04:00:44;;;;;;;4.97;4.67;;;;;;;23.38;91.82;99653.53;5093424;28;20193;-73
2023/09/25 04:03:10;;;;;;;5.27;4.90;;;;;;;23.61;90.74;99657.53;5092438;28;20227;-75
2023/09/25 04:05:37;;;;;;;5.43;5.03;;;;;;;23.84;88.99;99646.03;5093306;28;20192;-71
2023/09/25 04:08:05;;;;;;;5.50;4.67;;;;;;;24.03;87.18;99657.94;5085131;28;20187;-70
2023/09/25 04:10:32;;;;;;;6.80;4.43;;;;;;;24.17;86.26;99651.59;5072980;28;20282;-70
2023/09/25 04:12:59;;;;;;;8.97;5.43;;;;;;;24.33;84.51;99650.41;5072714;28;20198;-70
2023/09/25 04:15:27;;;;;;;7.43;5.30;;;;;;;24.48;83.37;99658.47;5072595;28;20199;-70
2023/09/25 04:17:54;;;;;;;11.97;4.70;;;;;;;24.59;82.93;99670.09;5072630;28;20195;-70
2023/09/25 04:20:24;;;;;;;6.33;5.10;;;;;;;24.68;81.76;99674.66;5072799;28;20222;-70
2023/09/25 04:22:51;;;;;;;7.30;5.40;;;;;;;24.70;81.75;99669.75;5072707;28;20285;-71
2023/09/25 04:25:19;;;;;;;7.03;5.30;;;;;;;24.56;81.63;99671.47;5072357;28;20198;-71
2023/09/25 04:27:47;;;;;;;5.57;5.00;;;;;;;24.68;81.29;99684.72;5072704;28;20201;-71
2023/09/25 04:30:15;;;;;;;5.63;4.83;;;;;;;24.64;81.31;99681.75;5072649;28;20196;-72
2023/09/25 04:32:44;;;;;;;5.57;5.07;;;;;;;24.72;80.17;99683.88;5072292;28;20769;-71
2023/09/25 04:35:12;;;;;;;8.17;5.47;;;;;;;24.65;81.58;99680.66;5072431;28;20261;-71
2023/09/25 04:37:39;;;;;;;6.10;5.30;;;;;;;24.74;81.24;99681.66;5072156;28;20282;-72
2023/09/25 04:40:14;;;;;;;10.47;6.73;;;;;;;24.77;79.82;99685.72;5072318;28;20192;-73
2023/09/25 04:42:41;;;;;;;6.10;5.17;;;;;;;24.78;81.01;99680.00;5072434;28;20241;-73
2023/09/25 04:45:12;;;;;;;6.70;5.30;;;;;;;24.90;80.44;99676.91;5072046;28;20196;-73
2023/09/25 04:47:39;;;;;;;6.70;5.43;;;;;;;25.00;79.57;99682.28;5072416;28;20223;-73
2023/09/25 04:50:09;;;;;;;6.53;5.87;;;;;;;25.08;78.11;99693.34;5072169;28;20572;-73
2023/09/25 04:52:36;;;;;;;7.17;6.40;;;;;;;25.08;77.78;99697.97;5085427;28;20281;-69
2023/09/25 04:55:05;;;;;;;7.07;6.33;;;;;;;24.72;80.19;99692.03;5092647;28;20237;-72
2023/09/25 04:57:32;;;;;;;6.93;6.20;;;;;;;24.55;81.51;99696.19;5092247;28;20278;-72
2023/09/25 04:59:58;;;;;;;6.73;6.23;;;;;;;24.66;80.79;99695.03;5092356;28;20646;-67
2023/09/25 05:02:25;;;;;;;8.77;6.67;;;;;;;24.58;79.91;99696.44;5092231;28;20218;-69
2023/09/25 05:04:52;;;;;;;6.60;6.10;;;;;;;24.53;80.40;99696.47;5092474;28;20202;-67
2023/09/25 05:07:20;;;;;;;8.53;6.20;;;;;;;24.45;80.21;99691.63;5092191;28;20233;-68
2023/09/25 05:09:46;;;;;;;6.03;5.47;;;;;;;24.37;80.89;99691.41;5092088;28;20191;-68
2023/09/25 05:12:14;;;;;;;9.00;6.40;;;;;;;24.31;81.38;99696.06;5092223;28;20202;-68
2023/09/25 05:14:41;;;;;;;7.10;6.23;;;;;;;24.17;81.74;99697.75;5092008;28;20194;-68
2023/09/25 05:17:07;;;;;;;6.67;6.07;;;;;;;24.10;82.02;99689.09;5092201;28;20192;-67
2023/09/25 05:19:34;;;;;;;8.23;6.20;;;;;;;24.03;82.79;99693.22;5091965;28;20193;-69
2023/09/25 05:22:01;;;;;;;9.87;5.97;;;;;;;23.97;83.16;99692.41;5091940;28;20276;-68
2023/09/25 05:24:29;;;;;;;12.73;6.60;;;;;;;24.00;83.13;99694.59;5092036;28;20260;-68
2023/09/25 05:26:55;;;;;;;7.80;5.53;;;;;;;23.95;82.87;99691.91;5091846;28;20594;-68
2023/09/25 05:29:22;;;;;;;7.93;5.93;;;;;;;24.01;83.11;99707.06;5092348;28;20193;-68
2023/09/25 05:31:49;;;;;;;8.03;4.93;;;;;;;23.90;83.12;99704.63;5091855;28;20198;-68
2023/09/25 05:34:15;;;;;;;7.50;4.97;;;;;;;23.88;82.99;99702.19;5091643;28;20214;-68
2023/09/25 05:36:42;;;;;;;10.50;5.23;;;;;;;23.93;83.30;99704.91;5091528;28;20251;-68
2023/09/25 05:39:10;;;;;;;9.80;5.00;;;;;;;23.92;83.53;99703.31;5091602;28;20246;-68
2023/09/25 05:41:38;;;;;;;11.30;5.40;;;;;;;24.11;83.59;99714.34;5091524;28;20293;-69
2023/09/25 05:44:06;;;;;;;8.07;5.47;;;;;;;24.00;82.29;99716.31;5091842;28;20277;-69
2023/09/25 05:46:32;;;;;;;8.10;5.00;;;;;;;24.13;82.66;99714.91;5091827;28;20189;-69
2023/09/25 05:48:59;;;;;;;10.07;5.50;;;;;;;24.25;81.65;99727.03;5091416;28;20194;-69
2023/09/25 05:51:26;;;;;;;11.30;5.47;;;;;;;24.31;81.17;99728.66;5090317;28;20571;-69
2023/09/25 05:53:53;;;;;;;6.60;5.63;;;;;;;24.43;81.09;99728.31;5087299;28;20263;-69
2023/09/25 05:56:20;;;;;;;7.87;4.60;;;;;;;24.36;81.20;99725.91;5091451;28;20191;-75
2023/09/25 05:58:48;;;;;;;5.63;5.10;;;;;;;24.55;79.80;99742.38;5090179;28;20251;-74
2023/09/25 06:01:14;;;;;;;9.47;5.60;;;;;;;24.72;79.24;99745.53;5091254;28;20256;-78
2023/09/25 06:03:41;;;;;;;7.73;5.70;;;;;;;24.85;77.87;99743.00;5091103;28;20279;-76
2023/09/25 06:06:08;;;;;;;8.10;5.50;;;;;;;24.98;78.65;99739.66;5091308;28;20258;-78
2023/09/25 06:08:35;;;;;;;9.77;5.80;;;;;;;25.11;76.87;99750.97;5087615;28;20567;-72
2023/09/25 06:11:02;;;;;;;7.13;5.53;;;;;;;24.94;77.33;99743.22;5086203;28;20203;-73
2023/09/25 06:13:30;;;;;;;7.00;5.37;;;;;;;24.91;76.93;99755.47;5087367;28;20278;-74
2023/09/25 06:15:58;;;;;;;7.67;5.43;;;;;;;25.02;76.90;99760.84;5080962;28;20188;-78
2023/09/25 06:18:25;;;;;;;6.20;5.60;;;;;;;24.93;76.02;99764.16;5073296;28;20188;-80
2023/09/25 06:20:52;;;;;;;6.23;5.73;;;;;;;24.83;77.10;99766.13;5083735;28;20282;-75
2023/09/25 06:23:18;;;;;;;6.63;5.87;;;;;;;24.79;77.38;99767.78;5090911;28;20227;-80
2023/09/25 06:25:45;;;;;;;11.43;5.47;;;;;;;24.82;76.54;99768.03;5084622;28;20188;-77
2023/09/25 06:28:14;;;;;;;11.53;5.67;;;;;;;24.78;77.34;99772.41;5092387;28;20218;-73
2023/09/25 06:30:41;;;;;;;7.43;5.10;;;;;;;24.90;76.35;99774.75;5089710;28;20588;-76
2023/09/25 06:33:09;;;;;;;10.13;5.97;;;;;;;24.84;76.21;99771.25;5080030;28;20200;-76
2023/09/25 06:35:36;;;;;;;5.27;4.80;;;;;;;24.93;77.57;99764.16;5079487;28;20224;-74
2023/09/25 06:38:03;;;;;;;7.20;4.80;;;;;;;25.25;76.78;99770.97;5074370;28;20188;-73
2023/09/25 06:40:30;;;;;;;8.83;5.53;;;;;;;25.53;74.46;99790.09;5074284;28;20249;-72
2023/09/25 06:42:56;;;;;;;8.80;5.43;;;;;;;25.70;73.07;99786.91;5080782;28;20207;-73
2023/09/25 06:45:24;;;;;;;7.60;5.60;;;;;;;25.80;73.62;99795.00;5093447;28;20199;-73
2023/09/25 06:47:51;;;;;;;11.13;5.90;;;;;;;25.76;72.46;99788.50;5093785;28;20282;-74
2023/09/25 06:50:19;;;;;;;9.37;5.73;;;;;;;25.73;73.01;99786.34;5094297;28;20264;-73
2023/09/25 06:52:46;;;;;;;11.70;5.47;;;;;;;25.67;73.15;99777.41;5094029;28;20693;-72
2023/09/25 06:55:13;;;;;;;6.70;5.67;;;;;;;25.83;71.84;99783.50;5094180;28;20264;-75
2023/09/25 06:57:40;;;;;;;7.87;5.43;;;;;;;25.97;72.01;99784.50;5093916;28;20716;-73
2023/09/25 07:00:09;;;;;;;5.83;5.30;;;;;;;26.19;71.83;99788.31;5094155;28;20187;-73
2023/09/25 07:02:36;;;;;;;6.33;5.10;;;;;;;26.33;70.73;99788.44;5094114;28;20227;-73
2023/09/25 07:05:03;;;;;;;6.10;4.80;;;;;;;26.32;70.28;99794.97;5094164;28;20701;-72
2023/09/25 07:07:31;;;;;;;8.83;5.03;;;;;;;26.29;70.86;99787.38;5090643;28;20729;-71
2023/09/25 07:09:57;;;;;;;8.27;5.33;;;;;;;26.32;69.91;99786.78;5073973;28;20277;-70
2023/09/25 07:12:24;;;;;;;8.40;4.57;;;;;;;26.44;70.48;99784.44;5073803;28;20231;-72
2023/09/25 07:14:55;;;;;;;6.30;4.87;;;;;;;26.83;68.85;99793.22;5073766;28;20196;-72
2023/09/25 07:17:22;;;;;;;6.37;4.97;;;;;;;27.15;69.07;99791.34;5082615;28;20187;-74
2023/09/25 07:19:51;;;;;;;8.87;5.07;;;;;;;27.18;67.58;99801.69;5092631;28;20195;-72
2023/09/25 07:22:17;;;;;;;5.33;4.87;;;;;;;27.30;67.79;99798.50;5079733;28;20270;-70
2023/09/25 07:24:45;;;;;;;7.87;4.97;;;;;;;27.46;66.50;99802.63;5082237;28;20249;-72
2023/09/25 07:27:12;;;;;;;5.33;4.87;;;;;;;27.36;65.23;99802.78;5083434;28;20191;-74
2023/09/25 07:29:42;;;;;;;31.67;6.93;;;;;;;27.23;66.09;99814.47;5078909;28;20198;-71
2023/09/25 07:32:09;;;;;;;8.77;5.20;;;;;;;27.31;66.41;99811.88;5081846;28;20196;-69
2023/09/25 07:34:36;;;;;;;6.50;4.60;;;;;;;27.39;66.51;99808.47;5082882;28;20261;-70
2023/09/25 07:37:05;;;;;;;7.23;4.67;;;;;;;27.44;64.79;99813.03;5092858;28;20201;-69
2023/09/25 07:39:33;;;;;;;5.13;4.63;;;;;;;27.55;64.86;99817.19;5093299;28;20191;-68
2023/09/25 07:42:01;;;;;;;9.00;4.17;;;;;;;27.72;63.53;99809.28;5088767;28;20349;-72
2023/09/25 07:44:28;;;;;;;5.37;4.33;;;;;;;27.80;63.46;99814.84;5074021;28;20285;-70
2023/09/25 07:46:57;;;;;;;7.77;4.50;;;;;;;28.04;63.77;99810.03;5072606;28;20192;-70
2023/09/25 07:49:23;;;;;;;4.60;4.20;;;;;;;28.36;63.20;99811.88;5072880;28;20195;-70
2023/09/25 07:51:51;;;;;;;7.07;4.70;;;;;;;28.64;61.33;99825.25;5078298;28;20200;-69
2023/09/25 07:54:17;;;;;;;7.07;4.17;;;;;;;28.77;60.54;99818.94;5092024;28;20234;-71
2023/09/25 07:56:44;;;;;;;4.53;4.20;;;;;;;28.93;60.53;99805.72;5080113;28;20195;-70
2023/09/25 07:59:13;;;;;;;7.13;4.93;;;;;;;29.03;59.02;99819.22;5085044;28;20248;-67
2023/09/25 08:01:42;;;;;;;5.10;4.60;;;;;;;29.13;58.64;99822.53;5085733;28;20658;-70
2023/09/25 08:04:08;;;;;;;6.40;4.43;;;;;;;29.20;58.33;99819.38;5079266;28;20265;-67
2023/09/25 08:06:35;;;;;;;7.27;5.27;;;;;;;29.19;57.40;99821.28;5081881;28;20187;-67
2023/09/25 08:09:03;;;;;;;8.20;4.77;;;;;;;29.27;57.05;99819.72;5079549;28;20199;-67
2023/09/25 08:11:29;;;;;;;10.40;4.73;;;;;;;29.47;55.69;99815.69;5072810;28;20200;-66
2023/09/25 08:13:56;;;;;;;4.30;3.90;;;;;;;29.69;56.59;99819.25;5072245;28;20567;-67
2023/09/25 08:16:27;;;;;;;6.67;4.20;;;;;;;29.68;53.09;99823.09;5076598;28;20759;-70
2023/09/25 08:18:53;;;;;;;6.50;4.33;;;;;;;29.15;54.33;99828.50;5086608;28;20259;-67
2023/09/25 08:21:20;;;;;;;5.30;4.20;;;;;;;29.14;54.79;99817.84;5073141;28;20742;-67
2023/09/25 08:23:47;;;;;;;4.97;4.50;;;;;;;29.18;54.91;99818.84;5088774;28;20302;-66
2023/09/25 08:26:16;;;;;;;6.90;4.63;;;;;;;29.16;54.18;99821.09;5092795;28;20195;-67
2023/09/25 08:28:43;;;;;;;10.40;4.33;;;;;;;29.09;54.60;99820.72;5087173;28;20696;-68
2023/09/25 08:31:09;;;;;;;5.10;4.67;;;;;;;28.78;54.62;99814.28;5079145;28;20187;-66
2023/09/25 08:33:39;;;;;;;4.87;4.53;;;;;;;28.38;55.71;99809.66;5075626;28;20196;-66
2023/09/25 08:36:10;;;;;;;13.77;5.90;;;;;;;28.35;57.24;99808.34;5071754;28;20242;-67
2023/09/25 08:38:36;;;;;;;5.43;4.30;;;;;;;28.37;56.71;99808.00;5070371;28;20187;-65
2023/09/25 08:41:03;;;;;;;6.23;4.63;;;;;;;28.53;55.79;99806.63;5072073;28;20223;-65
2023/09/25 08:43:31;;;;;;;8.40;5.00;;;;;;;28.67;54.88;99802.75;5072095;28;20310;-65
2023/09/25 08:45:58;;;;;;;5.27;4.83;;;;;;;28.68;55.48;99809.03;5072352;28;20196;-65
2023/09/25 08:48:25;;;;;;;7.97;4.67;;;;;;;28.70;56.14;99793.94;5070747;28;20620;-66
2023/09/25 08:50:54;;;;;;;12.90;4.93;;;;;;;29.03;55.17;99794.59;5071054;28;20651;-67
2023/09/25 08:53:22;;;;;;;6.93;4.60;;;;;;;29.29;52.82;99809.28;5071934;28;20659;-65
2023/09/25 08:55:49;;;;;;;5.30;4.80;;;;;;;29.35;52.53;99802.56;5071799;28;20187;-65
2023/09/25 08:58:16;;;;;;;9.47;5.37;;;;;;;29.39;53.23;99800.81;5071963;28;20249;-65
2023/09/25 09:00:43;;;;;;;7.20;4.60;;;;;;;29.11;53.86;99802.03;5071721;28;20195;-65
2023/09/25 09:03:10;;;;;;;6.13;4.63;;;;;;;29.21;53.50;99801.81;5071701;28;20228;-64
2023/09/25 09:05:37;;;;;;;6.60;5.40;;;;;;;29.26;52.74;99807.16;5071642;28;20257;-64
2023/09/25 09:08:06;;;;;;;11.90;5.80;;;;;;;29.26;53.26;99798.94;5079999;28;20268;-64
2023/09/25 09:10:34;;;;;;;7.00;6.37;;;;;;;29.02;53.17;99803.91;5092007;28;20191;-65
2023/09/25 09:13:01;;;;;;;6.67;6.17;;;;;;;28.99;53.42;99799.03;5091448;28;20670;-64
2023/09/25 09:15:29;;;;;;;8.57;7.80;;;;;;;28.92;54.09;99791.22;5091947;28;20284;-65
2023/09/25 09:17:57;;;;;;;8.13;6.80;;;;;;;29.15;53.34;99781.97;5091575;28;20200;-65
2023/09/25 09:20:36;;;;;;;8.60;7.80;;;;;;;29.23;52.65;99791.34;5091590;28;20192;-64
2023/09/25 09:23:03;;;;;;;7.73;7.13;;;;;;;29.31;52.93;99785.13;5091709;28;20188;-65
2023/09/25 09:25:31;;;;;;;8.40;7.73;;;;;;;29.30;52.95;99789.00;5091534;28;20237;-64
2023/09/25 09:27:59;;;;;;;10.60;9.53;;;;;;;29.20;52.70;99784.56;5091860;28;20191;-64
2023/09/25 09:30:26;;;;;;;11.23;10.33;;;;;;;29.20;52.78;99789.25;5091419;28;20195;-65
2023/09/25 09:32:54;;;;;;;10.30;9.37;;;;;;;29.23;52.00;99783.13;5081867;28;20223;-70
2023/09/25 09:35:24;;;;;;;8.67;7.83;;;;;;;29.16;52.36;99772.63;5079614;28;20242;-71
2023/09/25 09:37:52;;;;;;;9.40;8.60;;;;;;;29.08;52.80;99773.38;5078060;28;20218;-70
2023/09/25 09:40:20;;;;;;;9.97;9.00;;;;;;;29.13;53.57;99772.47;5075841;28;20208;-74
2023/09/25 09:42:49;;;;;;;17.33;9.97;;;;;;;29.27;52.71;99775.13;5088967;28;20230;-71
2023/09/25 09:45:15;;;;;;;9.37;8.70;;;;;;;29.34;51.73;99773.56;5087509;28;20618;-72
2023/09/25 09:47:44;;;;;;;9.97;8.83;;;;;;;29.36;50.82;99782.28;5088935;28;20249;-72
2023/09/25 09:50:11;;;;;;;8.30;7.80;;;;;;;29.32;50.99;99775.81;5089593;28;20202;-73
2023/09/25 09:52:39;;;;;;;10.40;8.83;;;;;;;29.35;51.47;99775.19;5090971;28;20753;-72
2023/09/25 09:55:07;;;;;;;10.57;9.37;;;;;;;29.55;51.05;99769.19;5091174;28;20730;-74
2023/09/25 09:57:34;;;;;;;11.60;8.80;;;;;;;29.66;50.00;99776.06;5083125;28;20268;-72
2023/09/25 10:00:05;;;;;;;10.73;7.80;;;;;;;29.79;49.70;99774.34;5092228;28;20256;-71
2023/09/25 10:02:32;;;;;;;8.97;6.67;;;;;;;29.56;48.91;99776.28;5095642;28;20210;-75
2023/09/25 10:04:59;;;;;;;6.97;6.47;;;;;;;29.17;48.73;99767.97;5095134;28;20694;-75
2023/09/25 10:07:27;;;;;;;7.13;6.57;;;;;;;29.14;49.82;99763.94;5091078;28;20253;-73
2023/09/25 10:09:58;;;;;;;7.17;6.67;;;;;;;29.01;50.83;99758.53;5074501;28;20227;-72
2023/09/25 10:12:38;;;;;;;10.57;7.30;;;;;;;29.05;50.32;99765.00;5074983;28;20196;-72
2023/09/25 10:15:12;;;;;;;7.17;6.63;;;;;;;29.04;50.24;99758.69;5090353;28;20203;-73
2023/09/25 10:17:42;;;;;;;7.00;6.47;;;;;;;29.21;50.42;99760.75;5080075;28;20188;-72
2023/09/25 10:20:33;;;;;;;6.63;6.13;;;;;;;29.07;50.39;99760.00;5075000;28;20275;-72
2023/09/25 10:23:05;;;;;;;7.30;6.70;;;;;;;29.21;50.95;99747.09;5074779;28;20197;-72
2023/09/25 10:25:33;;;;;;;8.20;6.40;;;;;;;29.37;49.92;99748.31;5075109;28;20204;-71
2023/09/25 10:28:00;;;;;;;17.43;8.00;;;;;;;29.41;51.08;99743.00;5075262;28;20200;-76
2023/09/25 10:30:28;;;;;;;7.43;6.30;;;;;;;29.45;49.38;99742.09;5074802;28;20253;-75
2023/09/25 10:32:56;;;;;;;9.47;6.83;;;;;;;29.60;48.83;99738.97;5075023;28;20249;-70
2023/09/25 10:35:43;;;;;;;7.43;6.10;;;;;;;29.90;49.10;99735.41;5074694;28;20656;-71
2023/09/25 10:38:15;;;;;;;8.17;6.30;;;;;;;29.91;48.87;99739.75;5074628;28;20229;-72
2023/09/25 10:40:46;;;;;;;6.30;5.87;;;;;;;30.05;46.91;99745.13;5074312;28;20192;-72
2023/09/25 10:43:15;;;;;;;5.80;5.30;;;;;;;30.15;46.73;99744.84;5092578;28;20195;-72
2023/09/25 10:45:44;;;;;;;7.03;5.43;;;;;;;29.90;47.54;99738.16;5094265;28;20596;-71
2023/09/25 10:48:11;;;;;;;7.93;5.70;;;;;;;29.83;47.34;99732.31;5087865;28;20261;-71
2023/09/25 10:50:38;;;;;;;6.73;6.13;;;;;;;29.94;47.15;99728.16;5074397;28;20228;-71
2023/09/25 10:53:08;;;;;;;7.03;6.17;;;;;;;30.06;47.17;99719.34;5074371;28;20250;-70
2023/09/25 10:55:35;;;;;;;7.70;6.50;;;;;;;30.17;48.97;99721.47;5074109;28;20184;-69
2023/09/25 10:58:04;;;;;;;6.93;6.13;;;;;;;30.15;47.18;99721.00;5074468;28;20238;-69
2023/09/25 11:00:32;;;;;;;5.70;5.30;;;;;;;30.08;47.03;99717.88;5074179;28;20206;-70
2023/09/25 11:03:01;;;;;;;6.10;5.00;;;;;;;30.12;45.86;99713.38;5074247;28;20237;-70
2023/09/25 11:05:29;;;;;;;10.17;5.20;;;;;;;30.21;45.89;99708.75;5065453;28;20346;-70
2023/09/25 11:07:56;;;;;;;6.80;5.17;;;;;;;30.08;45.37;99701.44;5087091;28;20245;-70
2023/09/25 11:10:28;;;;;;;5.07;4.57;;;;;;;29.73;46.05;99699.72;5073985;28;20263;-70
2023/09/25 11:12:54;;;;;;;8.93;5.03;;;;;;;29.41;46.47;99697.28;5073977;28;20275;-70
2023/09/25 11:15:21;;;;;;;5.27;4.73;;;;;;;29.28;47.83;99698.19;5073257;28;20276;-70
2023/09/25 11:17:48;;;;;;;8.60;4.67;;;;;;;29.32;47.96;99690.97;5073184;28;20192;-71
2023/09/25 11:20:18;;;;;;;5.17;4.67;;;;;;;29.39;46.67;99691.31;5075192;28;20524;-71
2023/09/25 11:22:46;;;;;;;11.13;5.10;;;;;;;29.36;47.12;99683.75;5073828;28;20184;-71
2023/09/25 11:25:15;;;;;;;10.00;5.40;;;;;;;29.47;46.98;99676.84;5073365;28;20730;-70
2023/09/25 11:27:51;;;;;;;7.23;4.40;;;;;;;29.37;46.76;99679.88;5074640;28;20227;-70
2023/09/25 11:30:18;;;;;;;5.37;4.67;;;;;;;29.36;47.55;99672.81;5072936;28;20184;-69
2023/09/25 11:32:44;;;;;;;6.23;5.07;;;;;;;29.45;47.76;99675.56;5073268;28;20649;-70